KFMN/FMN METAR and TAF weather

Enter ICAO airport designator
Station Type Date Time Source
KFMN METAR 2020/03/29 11:53 UTC NOAA

KFMN 291153Z AUTO 09005KT 10SM OVC100 00/M08 A3010 RMK AO2 SLP192 T00001078 10011 21011 53003


Station Type Date Time Source
KFMN Decoded METAR 2020/03/29 11:53 UTC NOAA

FARMINGTON FOUR CORNERS, NM, United States (KFMN) 36-45N 108-14W 1685M
Mar 29, 2020 - 07:53 AM EDT / 2020.03.29 1153 UTC
Wind: from the E (090 degrees) at 6 MPH (5 KT):0
Visibility: 10 mile(s):0
Sky conditions: overcast
Temperature: 32.0 F (0.0 C)
Windchill: 26 F (-3 C):1
Dew Point: 18.0 F (-7.8 C)
Relative Humidity: 55%
Pressure (altimeter): 30.1 in. Hg (1019 hPa)
Pressure tendency: 0.01 inches (0.3 hPa) higher than three hours ago
ob: KFMN 291153Z AUTO 09005KT 10SM OVC100 00/M08 A3010 RMK AO2 SLP192 T00001078 10011 21011 53003
cycle: 12

Station Type Date Time Source
KFMN TAF 2020/03/29 12:54 UTC NOAA

TAF KFMN 291151Z 2912/3012 08007KT P6SM FEW110 BKN200
FM291800 13007KT P6SM BKN100
FM292200 21008KT P6SM BKN080
FM300200 33007KT P6SM BKN060
FM300600 VRB04KT P6SM VCSH OVC050

Example: see airport list